createdAt,value
2022-08-10T00:02:13.067Z,77.90
2022-08-10T00:04:39.740Z,77.90
2022-08-10T00:07:06.411Z,77.90
2022-08-10T00:09:33.224Z,77.90
2022-08-10T00:12:19.431Z,77.90
2022-08-10T00:14:46.292Z,78.10
2022-08-10T00:17:13.013Z,78.20
2022-08-10T00:20:04.153Z,78.30
2022-08-10T00:22:26.498Z,78.40
2022-08-10T00:24:57.281Z,78.40
2022-08-10T00:27:52.894Z,78.30
2022-08-10T00:30:12.270Z,78.40
2022-08-10T00:32:38.901Z,78.40
2022-08-10T00:35:06.695Z,78.30
2022-08-10T00:37:33.317Z,78.30
2022-08-10T00:40:00.048Z,78.30
2022-08-10T00:42:26.819Z,78.20
2022-08-10T00:44:53.659Z,78.10
2022-08-10T00:47:35.659Z,78.20
2022-08-10T00:50:05.263Z,78.30
2022-08-10T00:52:33.358Z,78.30
2022-08-10T00:55:01.177Z,78.30
2022-08-10T00:57:28.289Z,78.20
2022-08-10T00:59:58.856Z,78.40
2022-08-10T01:02:28.565Z,78.50
2022-08-10T01:05:00.231Z,78.60
2022-08-10T01:07:49.162Z,78.70
2022-08-10T01:10:42.083Z,78.80
2022-08-10T01:13:26.360Z,78.90
2022-08-10T01:15:55.944Z,79.00
2022-08-10T01:18:41.258Z,78.90
2022-08-10T01:21:23.404Z,79.00
2022-08-10T01:24:40.416Z,79.30
2022-08-10T01:27:28.917Z,79.50
2022-08-10T01:30:06.589Z,79.70
2022-08-10T01:32:54.171Z,80.60
2022-08-10T01:35:33.125Z,80.10
2022-08-10T01:38:06.830Z,80.20
2022-08-10T01:40:40.021Z,80.30
2022-08-10T01:43:10.356Z,80.30
2022-08-10T01:45:46.098Z,80.40
2022-08-10T01:48:36.896Z,80.40
2022-08-10T01:51:21.870Z,80.50
2022-08-10T01:54:03.740Z,80.80
2022-08-10T01:56:34.501Z,80.50
2022-08-10T01:59:22.023Z,80.50
2022-08-10T02:01:52.014Z,80.60
2022-08-10T02:04:20.814Z,80.60
2022-08-10T02:06:53.355Z,80.80
2022-08-10T02:09:32.684Z,80.90
2022-08-10T02:12:13.745Z,81.10
2022-08-10T02:14:47.865Z,81.20
2022-08-10T02:17:58.090Z,81.20
2022-08-10T02:20:17.147Z,81.20
2022-08-10T02:22:45.356Z,81.30
2022-08-10T02:25:40.737Z,81.40
2022-08-10T02:28:03.346Z,81.50
2022-08-10T02:30:30.885Z,81.50
2022-08-10T02:33:00.222Z,81.50
2022-08-10T02:35:27.802Z,81.60
2022-08-10T02:38:06.071Z,81.60
2022-08-10T02:45:02.553Z,81.50
2022-08-10T02:45:27.429Z,81.40
2022-08-10T02:46:33.883Z,81.50
2022-08-10T02:49:06.335Z,81.60
2022-08-10T02:52:07.970Z,81.80
2022-08-10T02:54:35.502Z,81.80
2022-08-10T02:57:12.486Z,82.00
2022-08-10T02:59:45.033Z,82.00
2022-08-10T03:02:34.483Z,82.00
2022-08-10T03:05:06.669Z,82.40
2022-08-10T03:07:44.393Z,82.60
2022-08-10T03:10:17.223Z,82.80
2022-08-10T03:12:45.891Z,82.90
2022-08-10T03:15:15.461Z,83.10
2022-08-10T03:17:56.843Z,83.30
2022-08-10T03:20:37.374Z,83.40
2022-08-10T03:23:11.032Z,83.40
2022-08-10T03:25:39.174Z,83.40
2022-08-10T03:28:07.158Z,83.50
2022-08-10T03:30:35.002Z,83.70
2022-08-10T03:33:06.489Z,83.70
2022-08-10T03:35:33.958Z,83.90
2022-08-10T03:38:01.143Z,84.10
2022-08-10T03:40:46.096Z,84.10
2022-08-10T03:43:22.355Z,84.10
2022-08-10T03:45:58.488Z,84.30
2022-08-10T03:48:32.288Z,84.40
2022-08-10T03:51:11.772Z,84.30
2022-08-10T03:54:05.965Z,84.30
2022-08-10T03:56:31.433Z,84.50
2022-08-10T03:58:59.350Z,84.40
2022-08-10T04:02:45.903Z,84.40
2022-08-10T04:04:17.764Z,84.40
2022-08-10T04:06:51.560Z,84.60
2022-08-10T04:09:22.322Z,84.60
2022-08-10T04:11:49.583Z,84.70
2022-08-10T04:14:35.647Z,84.70
2022-08-10T04:17:02.928Z,84.90
2022-08-10T04:19:34.237Z,85.00
2022-08-10T04:22:08.755Z,84.90
2022-08-10T04:24:37.966Z,84.90
2022-08-10T04:27:04.897Z,85.00
2022-08-10T04:29:32.039Z,85.20
2022-08-10T04:32:00.654Z,85.30
2022-08-10T04:34:31.762Z,85.50
2022-08-10T04:37:08.638Z,85.60
2022-08-10T04:39:36.278Z,85.70
2022-08-10T04:42:03.983Z,86.50
2022-08-10T04:44:30.971Z,85.80
2022-08-10T04:46:59.387Z,85.70
2022-08-10T04:49:56.673Z,85.60
2022-08-10T04:52:14.463Z,85.70
2022-08-10T04:54:41.785Z,85.50
2022-08-10T04:57:08.812Z,85.50
2022-08-10T04:59:35.498Z,85.60
2022-08-10T05:02:21.461Z,85.60
2022-08-10T05:04:48.967Z,85.60
2022-08-10T05:07:18.660Z,85.60
2022-08-10T05:10:01.383Z,85.70
2022-08-10T05:12:39.157Z,85.70
2022-08-10T05:15:11.850Z,85.80
2022-08-10T05:17:39.926Z,85.80
2022-08-10T05:20:08.934Z,85.80
2022-08-10T05:22:37.973Z,85.70
2022-08-10T05:25:07.258Z,85.80
2022-08-10T05:27:34.615Z,86.10
2022-08-10T05:30:03.348Z,86.10
2022-08-10T05:32:34.348Z,86.10
2022-08-10T05:35:20.067Z,86.20
2022-08-10T05:38:11.753Z,86.10
2022-08-10T05:40:37.588Z,86.20
2022-08-10T05:43:05.489Z,86.20
2022-08-10T05:45:32.144Z,86.40
2022-08-10T05:48:41.734Z,86.40
2022-08-10T05:50:45.583Z,86.50
2022-08-10T05:53:59.155Z,86.50
2022-08-10T05:55:59.967Z,86.50
2022-08-10T05:58:26.739Z,86.70
2022-08-10T06:00:57.316Z,86.50
2022-08-10T06:03:27.994Z,86.60
2022-08-10T06:05:55.665Z,86.50
2022-08-10T06:08:28.256Z,86.80
2022-08-10T06:12:24.264Z,86.80
2022-08-10T06:14:15.773Z,86.80
2022-08-10T06:16:44.086Z,87.00
2022-08-10T06:19:15.061Z,87.30
2022-08-10T06:21:54.942Z,87.30
2022-08-10T06:24:31.026Z,87.40
2022-08-10T06:27:01.275Z,87.60
2022-08-10T06:29:31.930Z,87.70
2022-08-10T06:32:00.431Z,87.60
2022-08-10T06:34:45.501Z,88.00
2022-08-10T06:37:14.184Z,88.00
2022-08-10T06:39:41.044Z,88.20
2022-08-10T06:42:23.074Z,88.40
2022-08-10T06:45:00.663Z,88.20
2022-08-10T06:47:35.009Z,88.50
2022-08-10T06:50:08.845Z,88.40
2022-08-10T06:52:37.017Z,88.50
2022-08-10T06:55:08.570Z,88.60
2022-08-10T06:57:37.495Z,88.50
2022-08-10T07:00:06.517Z,89.40
2022-08-10T07:02:50.559Z,88.60
2022-08-10T07:05:22.812Z,88.70
2022-08-10T07:07:52.649Z,88.40
2022-08-10T07:10:21.415Z,88.50
2022-08-10T07:12:50.172Z,88.60
2022-08-10T07:15:18.286Z,88.40
2022-08-10T07:17:46.706Z,88.60
2022-08-10T07:20:21.085Z,88.60
2022-08-10T07:23:08.360Z,88.40
2022-08-10T07:25:39.490Z,88.20
2022-08-10T07:28:06.796Z,88.00
2022-08-10T07:30:38.752Z,87.50
2022-08-10T07:33:06.244Z,87.50
2022-08-10T07:35:43.437Z,87.50
2022-08-10T07:38:23.518Z,87.30
2022-08-10T07:40:51.929Z,87.10
2022-08-10T07:43:23.169Z,87.10
2022-08-10T07:45:50.280Z,87.20
2022-08-10T07:48:26.466Z,87.10
2022-08-10T07:50:59.254Z,87.10
2022-08-10T07:53:33.696Z,87.10
2022-08-10T07:56:13.385Z,87.30
2022-08-10T07:58:53.061Z,86.80
2022-08-10T08:01:24.201Z,86.40
2022-08-10T08:04:05.605Z,86.20
2022-08-10T08:06:40.621Z,86.20
2022-08-10T08:09:07.998Z,86.20
2022-08-10T08:11:37.296Z,86.60
2022-08-10T08:14:07.449Z,86.70
2022-08-10T08:16:36.211Z,87.00
2022-08-10T08:19:27.135Z,87.10
2022-08-10T08:24:10.073Z,87.10
2022-08-10T08:24:41.663Z,87.40
2022-08-10T08:27:10.912Z,87.70
2022-08-10T08:29:41.226Z,87.10
2022-08-10T08:32:08.404Z,87.10
2022-08-10T08:34:39.125Z,87.50
2022-08-10T08:37:08.921Z,87.30
2022-08-10T08:46:08.347Z,86.20
2022-08-10T08:48:54.789Z,86.30
2022-08-10T08:52:08.166Z,86.10
2022-08-10T08:54:36.270Z,85.30
2022-08-10T08:57:11.166Z,84.70
2022-08-10T09:00:05.831Z,84.40
2022-08-10T09:02:38.627Z,84.40
2022-08-10T09:05:08.480Z,83.60
2022-08-10T09:08:00.630Z,82.80
2022-08-10T09:10:52.405Z,82.90
2022-08-10T09:13:34.892Z,82.90
2022-08-10T09:16:20.228Z,82.00
2022-08-10T09:18:55.459Z,80.90
2022-08-10T09:21:58.947Z,80.80
2022-08-10T09:24:43.644Z,81.00
2022-08-10T09:27:22.696Z,81.50
2022-08-10T09:30:05.077Z,81.80
2022-08-10T09:36:13.236Z,82.00
2022-08-10T09:36:31.190Z,82.10
2022-08-10T09:40:56.785Z,81.20
2022-08-10T09:42:14.560Z,80.40
2022-08-10T09:45:06.233Z,80.10
2022-08-10T09:48:01.879Z,79.40
2022-08-10T09:54:03.649Z,79.30
2022-08-10T09:56:48.380Z,79.50
2022-08-10T10:00:00.509Z,79.50
2022-08-10T10:02:48.808Z,79.60
2022-08-10T10:05:21.384Z,78.70
2022-08-10T10:08:05.591Z,78.10
2022-08-10T10:10:54.113Z,77.80
2022-08-10T10:13:50.025Z,77.00
2022-08-10T10:16:47.130Z,77.20
2022-08-10T10:19:53.694Z,75.90
2022-08-10T10:22:38.607Z,75.60
2022-08-10T10:25:21.096Z,75.40
2022-08-10T10:28:16.263Z,75.40
2022-08-10T10:31:17.026Z,74.70
2022-08-10T10:34:11.262Z,74.00
2022-08-10T10:36:41.857Z,72.50
2022-08-10T10:39:14.342Z,70.80
2022-08-10T10:42:35.102Z,69.90
2022-08-10T10:45:31.839Z,70.10
2022-08-10T10:48:28.983Z,71.50
2022-08-10T10:50:59.130Z,72.60
2022-08-10T10:53:49.556Z,73.20
2022-08-10T10:56:35.429Z,73.50
2022-08-10T10:59:55.391Z,73.50
2022-08-10T11:02:32.642Z,73.00
2022-08-10T11:05:13.562Z,72.90
2022-08-10T11:08:07.639Z,72.60
2022-08-10T11:10:47.529Z,72.00
2022-08-10T11:14:26.525Z,72.00
2022-08-10T11:16:20.228Z,72.00
2022-08-10T11:19:13.567Z,71.80
2022-08-10T11:21:54.641Z,71.50
2022-08-10T11:24:48.878Z,70.70
2022-08-10T11:27:33.734Z,71.00
2022-08-10T11:30:09.701Z,71.20
2022-08-10T11:33:03.426Z,71.10
2022-08-10T11:35:48.392Z,70.90
2022-08-10T11:39:11.140Z,70.90
2022-08-10T11:42:09.751Z,70.60
2022-08-10T11:44:54.051Z,70.60
2022-08-10T11:47:27.617Z,70.40
2022-08-10T11:50:17.847Z,69.90
2022-08-10T11:52:56.439Z,70.00
2022-08-10T11:55:26.408Z,69.80
2022-08-10T11:57:57.209Z,69.00
2022-08-10T12:00:29.500Z,68.10
2022-08-10T12:03:03.751Z,67.70
2022-08-10T12:05:53.130Z,67.40
2022-08-10T12:10:07.803Z,67.80
2022-08-10T12:11:22.438Z,68.10
2022-08-10T12:14:19.837Z,67.80
2022-08-10T12:16:54.282Z,67.40
2022-08-10T12:19:27.149Z,68.20
2022-08-10T12:22:05.809Z,67.50
2022-08-10T12:24:54.567Z,67.10
2022-08-10T12:27:39.936Z,67.30
2022-08-10T12:30:09.991Z,67.30
2022-08-10T12:32:50.214Z,67.30
2022-08-10T12:35:56.075Z,66.80
2022-08-10T12:38:43.102Z,66.90
2022-08-10T12:41:45.052Z,67.10
2022-08-10T12:44:41.106Z,67.00
2022-08-10T12:47:29.777Z,67.10
2022-08-10T12:50:30.401Z,67.10
2022-08-10T12:53:11.089Z,66.90
2022-08-10T12:55:39.282Z,67.10
2022-08-10T12:58:59.659Z,67.10
2022-08-10T13:01:15.117Z,67.10
2022-08-10T13:04:22.883Z,66.40
2022-08-10T13:06:33.997Z,67.30
2022-08-10T13:09:09.954Z,66.20
2022-08-10T13:12:39.181Z,66.30
2022-08-10T13:14:34.250Z,66.40
2022-08-10T13:17:03.059Z,66.50
2022-08-10T13:19:54.505Z,66.50
2022-08-10T13:22:25.463Z,66.80
2022-08-10T13:24:55.647Z,66.70
2022-08-10T13:28:00.763Z,66.50
2022-08-10T13:30:37.267Z,65.30
2022-08-10T13:33:07.446Z,65.00
2022-08-10T13:35:36.007Z,64.90
2022-08-10T13:38:05.270Z,64.70
2022-08-10T13:40:33.057Z,64.60
2022-08-10T13:43:02.427Z,64.70
2022-08-10T13:45:30.362Z,64.20
2022-08-10T13:48:19.391Z,64.40
2022-08-10T13:50:47.469Z,64.10
2022-08-10T13:53:16.815Z,64.00
2022-08-10T13:55:57.230Z,64.00
2022-08-10T13:58:37.325Z,63.90
2022-08-10T14:01:14.220Z,64.00
2022-08-10T14:03:43.033Z,63.90
2022-08-10T14:06:17.266Z,64.20
2022-08-10T14:08:51.514Z,64.00
2022-08-10T14:11:20.261Z,64.00
2022-08-10T14:13:55.244Z,64.00
2022-08-10T14:16:23.379Z,63.20
2022-08-10T14:18:54.931Z,63.00
2022-08-10T14:21:22.368Z,62.80
2022-08-10T14:23:52.772Z,62.90
2022-08-10T14:26:31.457Z,63.00
2022-08-10T14:29:05.454Z,62.50
2022-08-10T14:31:34.903Z,62.70
2022-08-10T14:34:04.330Z,62.70
2022-08-10T14:36:33.240Z,62.20
2022-08-10T14:39:02.386Z,62.30
2022-08-10T14:42:01.556Z,62.50
2022-08-10T14:44:20.460Z,62.20
2022-08-10T14:46:55.787Z,62.10
2022-08-10T14:49:25.353Z,62.00
2022-08-10T14:52:01.031Z,61.90
2022-08-10T14:54:30.199Z,62.00
2022-08-10T14:57:10.630Z,61.80
2022-08-10T15:00:25.497Z,61.40
2022-08-10T15:02:55.873Z,61.40
2022-08-10T15:05:39.280Z,61.20
2022-08-10T15:08:10.242Z,61.10
2022-08-10T15:10:38.800Z,60.90
2022-08-10T15:13:34.470Z,60.80
2022-08-10T15:16:12.476Z,60.60
2022-08-10T15:18:57.577Z,60.70
2022-08-10T15:21:29.196Z,60.90
2022-08-10T15:24:14.713Z,60.90
2022-08-10T15:26:57.283Z,61.00
2022-08-10T15:29:26.044Z,60.80
2022-08-10T15:32:12.084Z,60.60
2022-08-10T15:34:58.469Z,60.00
2022-08-10T15:37:40.217Z,60.20
2022-08-10T15:40:25.131Z,60.40
2022-08-10T15:43:24.467Z,60.30
2022-08-10T15:45:59.502Z,60.40
2022-08-10T15:48:31.366Z,60.10
2022-08-10T15:51:05.992Z,60.00
2022-08-10T15:53:50.647Z,60.00
2022-08-10T15:56:45.626Z,60.90
2022-08-10T15:59:33.174Z,61.30
2022-08-10T16:02:15.873Z,61.40
2022-08-10T16:05:02.662Z,62.50
2022-08-10T16:07:45.903Z,61.90
2022-08-10T16:10:25.430Z,62.10
2022-08-10T16:13:59.835Z,62.10
2022-08-10T16:16:05.366Z,61.90
2022-08-10T16:18:38.911Z,62.00
2022-08-10T16:21:21.092Z,62.00
2022-08-10T16:24:14.426Z,61.90
2022-08-10T16:26:46.294Z,61.20
2022-08-10T16:29:18.153Z,60.60
2022-08-10T16:31:54.827Z,60.20
2022-08-10T16:34:23.356Z,59.70
2022-08-10T16:36:57.156Z,59.20
2022-08-10T16:39:59.253Z,58.80
2022-08-10T16:42:18.259Z,58.20
2022-08-10T16:45:01.302Z,58.00
2022-08-10T16:47:29.344Z,57.70
2022-08-10T16:50:02.699Z,57.70
2022-08-10T16:52:33.315Z,57.50
2022-08-10T16:55:23.403Z,57.80
2022-08-10T16:57:55.160Z,58.30
2022-08-10T17:00:23.792Z,58.30
2022-08-10T17:03:22.629Z,58.30
2022-08-10T17:06:11.347Z,58.50
2022-08-10T17:08:48.748Z,58.40
2022-08-10T17:11:18.317Z,58.50
2022-08-10T17:13:45.574Z,58.30
2022-08-10T17:16:14.435Z,58.60
2022-08-10T17:18:46.735Z,58.70
2022-08-10T17:21:28.505Z,59.00
2022-08-10T17:24:00.058Z,58.80
2022-08-10T17:26:36.036Z,58.50
2022-08-10T17:29:58.550Z,58.20
2022-08-10T17:32:14.560Z,58.00
2022-08-10T17:34:46.622Z,57.40
2022-08-10T17:37:17.712Z,57.30
2022-08-10T17:39:59.354Z,57.10
2022-08-10T17:42:28.296Z,57.20
2022-08-10T17:44:58.222Z,56.60
2022-08-10T17:47:27.627Z,56.50
2022-08-10T17:49:59.512Z,56.90
2022-08-10T17:52:31.739Z,57.40
2022-08-10T17:55:05.753Z,57.70
2022-08-10T17:57:40.844Z,58.00
2022-08-10T18:00:14.863Z,58.10
2022-08-10T18:02:46.077Z,58.20
2022-08-10T18:05:14.855Z,58.50
2022-08-10T18:07:49.966Z,58.60
2022-08-10T18:10:21.405Z,58.80
2022-08-10T18:12:53.674Z,59.00
2022-08-10T18:15:23.425Z,59.50
2022-08-10T18:17:59.133Z,59.80
2022-08-10T18:20:35.532Z,60.00
2022-08-10T18:23:03.690Z,60.30
2022-08-10T18:25:34.923Z,60.40
2022-08-10T18:28:05.712Z,60.60
2022-08-10T18:30:36.567Z,60.80
2022-08-10T18:33:08.620Z,61.20
2022-08-10T18:35:35.920Z,61.20
2022-08-10T18:38:03.971Z,61.40
2022-08-10T18:40:36.334Z,62.50
2022-08-10T18:44:06.029Z,62.00
2022-08-10T18:45:56.992Z,62.10
2022-08-10T18:48:27.807Z,62.50
2022-08-10T18:50:57.496Z,62.70
2022-08-10T18:53:47.737Z,62.80
2022-08-10T18:56:32.052Z,62.90
2022-08-10T18:59:36.265Z,63.00
2022-08-10T19:02:34.537Z,63.10
2022-08-10T19:05:38.068Z,63.20
2022-08-10T19:08:04.906Z,63.40
2022-08-10T19:10:45.598Z,63.50
2022-08-10T19:13:27.590Z,63.70
2022-08-10T19:16:20.277Z,63.70
2022-08-10T19:18:55.942Z,64.00
2022-08-10T19:21:39.411Z,64.10
2022-08-10T19:24:23.910Z,64.30
2022-08-10T19:27:11.610Z,64.50
2022-08-10T19:30:13.473Z,64.50
2022-08-10T19:33:11.219Z,64.70
2022-08-10T19:36:20.680Z,64.80
2022-08-10T19:38:50.481Z,65.00
2022-08-10T19:41:44.445Z,65.10
2022-08-10T19:44:39.642Z,65.20
2022-08-10T19:47:14.125Z,65.20
2022-08-10T19:49:50.095Z,65.30
2022-08-10T19:52:25.777Z,65.50
2022-08-10T19:55:15.507Z,65.70
2022-08-10T19:57:52.713Z,65.60
2022-08-10T20:00:24.306Z,65.80
2022-08-10T20:03:04.430Z,65.80
2022-08-10T20:06:13.113Z,66.00
2022-08-10T20:09:17.306Z,66.10
2022-08-10T20:12:07.701Z,66.10
2022-08-10T20:14:58.669Z,66.20
2022-08-10T20:17:51.594Z,66.40
2022-08-10T20:20:44.355Z,66.50
2022-08-10T20:23:18.972Z,66.80
2022-08-10T20:26:01.067Z,66.90
2022-08-10T20:28:49.449Z,67.10
2022-08-10T20:31:25.428Z,67.10
2022-08-10T20:34:01.474Z,67.30
2022-08-10T20:36:34.162Z,67.50
2022-08-10T20:39:16.359Z,67.60
2022-08-10T20:42:08.411Z,67.80
2022-08-10T20:44:58.375Z,67.90
2022-08-10T20:47:28.450Z,67.90
2022-08-10T20:50:21.378Z,68.00
2022-08-10T20:52:51.481Z,68.10
2022-08-10T20:55:20.645Z,68.20
2022-08-10T20:58:08.344Z,68.10
2022-08-10T21:00:49.159Z,68.30
2022-08-10T21:03:25.166Z,68.30
2022-08-10T21:06:43.133Z,68.30
2022-08-10T21:09:47.485Z,68.50
2022-08-10T21:12:59.361Z,68.50
2022-08-10T21:15:29.043Z,68.70
2022-08-10T21:18:14.837Z,68.80
2022-08-10T21:21:19.187Z,69.00
2022-08-10T21:24:09.387Z,69.10
2022-08-10T21:27:02.121Z,70.00
2022-08-10T21:29:57.046Z,69.30
2022-08-10T21:32:48.187Z,69.40
2022-08-10T21:35:20.364Z,69.50
2022-08-10T21:38:28.695Z,69.60
2022-08-10T21:41:57.255Z,69.80
2022-08-10T21:45:07.904Z,70.00
2022-08-10T21:48:30.219Z,70.10
2022-08-10T21:52:01.889Z,70.20
2022-08-10T21:55:16.493Z,70.30
2022-08-10T21:58:04.802Z,70.60
2022-08-10T22:00:51.358Z,70.60
2022-08-10T22:03:39.451Z,70.80
2022-08-10T22:06:27.278Z,70.80
2022-08-10T22:09:20.657Z,71.50
2022-08-10T22:12:11.077Z,70.80
2022-08-10T22:15:24.112Z,70.80
2022-08-10T22:18:32.754Z,70.90
2022-08-10T22:21:41.281Z,70.90
2022-08-10T22:24:37.509Z,71.00
2022-08-10T22:27:46.531Z,71.00
2022-08-10T22:30:36.881Z,71.00
2022-08-10T22:33:40.844Z,71.10
2022-08-10T22:36:51.319Z,71.20
2022-08-10T22:40:11.313Z,71.30
2022-08-10T22:43:10.401Z,71.30
2022-08-10T22:46:04.791Z,71.40
2022-08-10T22:48:57.765Z,71.50
2022-08-10T22:51:28.864Z,71.60
2022-08-10T22:54:30.763Z,71.70
2022-08-10T22:57:21.316Z,71.70
2022-08-10T22:59:49.611Z,71.70
2022-08-10T23:02:32.032Z,71.70
2022-08-10T23:05:08.226Z,71.70
2022-08-10T23:07:44.104Z,71.80
2022-08-10T23:10:13.207Z,72.00
2022-08-10T23:13:00.039Z,72.20
2022-08-10T23:15:51.385Z,72.30
2022-08-10T23:18:57.602Z,72.50
2022-08-10T23:21:47.713Z,72.50
2022-08-10T23:24:24.014Z,72.60
2022-08-10T23:26:54.515Z,72.50
2022-08-10T23:29:23.740Z,72.70
2022-08-10T23:32:06.611Z,72.80
2022-08-10T23:34:35.991Z,72.80
2022-08-10T23:37:06.069Z,73.00
2022-08-10T23:39:48.291Z,73.20
2022-08-10T23:42:18.618Z,73.20
2022-08-10T23:44:49.327Z,73.40
2022-08-10T23:47:25.434Z,73.50
2022-08-10T23:49:57.738Z,73.70
2022-08-10T23:52:28.473Z,73.60
2022-08-10T23:55:12.460Z,73.70
2022-08-10T23:57:45.119Z,73.70
